sensor_id;sensor_type;location;lat;lon;timestamp;temperature;humidity
45329;DHT22;31063;48.356;10.896;2022-11-11T00:00:29;6.40;99.90
45329;DHT22;31063;48.356;10.896;2022-11-11T00:02:55;6.50;99.90
45329;DHT22;31063;48.356;10.896;2022-11-11T00:05:21;6.40;99.90
45329;DHT22;31063;48.356;10.896;2022-11-11T00:07:47;6.30;99.90
45329;DHT22;31063;48.356;10.896;2022-11-11T00:10:13;6.40;99.90
45329;DHT22;31063;48.356;10.896;2022-11-11T00:12:38;6.40;99.90
45329;DHT22;31063;48.356;10.896;2022-11-11T00:15:05;6.40;99.90
45329;DHT22;31063;48.356;10.896;2022-11-11T00:17:31;6.40;99.90
45329;DHT22;31063;48.356;10.896;2022-11-11T00:20:16;6.30;99.90
45329;DHT22;31063;48.356;10.896;2022-11-11T00:23:00;6.30;99.90
45329;DHT22;31063;48.356;10.896;2022-11-11T00:25:44;6.30;99.90
45329;DHT22;31063;48.356;10.896;2022-11-11T00:28:09;6.30;99.90
45329;DHT22;31063;48.356;10.896;2022-11-11T00:30:35;6.30;99.90
45329;DHT22;31063;48.356;10.896;2022-11-11T00:33:01;6.20;99.90
45329;DHT22;31063;48.356;10.896;2022-11-11T00:35:26;6.20;99.90
45329;DHT22;31063;48.356;10.896;2022-11-11T00:38:12;6.20;99.90
45329;DHT22;31063;48.356;10.896;2022-11-11T00:40:58;6.20;99.90
45329;DHT22;31063;48.356;10.896;2022-11-11T00:43:23;6.20;99.90
45329;DHT22;31063;48.356;10.896;2022-11-11T00:45:49;6.20;99.90
45329;DHT22;31063;48.356;10.896;2022-11-11T00:48:14;6.10;99.90
45329;DHT22;31063;48.356;10.896;2022-11-11T00:50:58;6.10;99.90
45329;DHT22;31063;48.356;10.896;2022-11-11T00:53:26;6.10;99.90
45329;DHT22;31063;48.356;10.896;2022-11-11T00:55:52;6.10;99.90
45329;DHT22;31063;48.356;10.896;2022-11-11T00:58:18;6.10;99.90
45329;DHT22;31063;48.356;10.896;2022-11-11T01:00:44;6.00;99.90
45329;DHT22;31063;48.356;10.896;2022-11-11T01:03:10;6.00;99.90
45329;DHT22;31063;48.356;10.896;2022-11-11T01:05:37;6.00;99.90
45329;DHT22;31063;48.356;10.896;2022-11-11T01:08:03;5.90;99.90
45329;DHT22;31063;48.356;10.896;2022-11-11T01:10:28;5.90;99.90
45329;DHT22;31063;48.356;10.896;2022-11-11T01:13:06;5.90;99.90
45329;DHT22;31063;48.356;10.896;2022-11-11T01:15:43;5.90;99.90
45329;DHT22;31063;48.356;10.896;2022-11-11T01:18:11;5.90;99.90
45329;DHT22;31063;48.356;10.896;2022-11-11T01:20:39;5.90;99.90
45329;DHT22;31063;48.356;10.896;2022-11-11T01:23:07;5.90;99.90
45329;DHT22;31063;48.356;10.896;2022-11-11T01:25:37;5.90;99.90
45329;DHT22;31063;48.356;10.896;2022-11-11T01:28:04;5.80;99.90
45329;DHT22;31063;48.356;10.896;2022-11-11T01:30:34;5.80;99.90
45329;DHT22;31063;48.356;10.896;2022-11-11T01:33:00;5.80;99.90
45329;DHT22;31063;48.356;10.896;2022-11-11T01:35:26;5.80;99.90
45329;DHT22;31063;48.356;10.896;2022-11-11T01:37:52;5.80;99.90
45329;DHT22;31063;48.356;10.896;2022-11-11T01:40:18;5.70;99.90
45329;DHT22;31063;48.356;10.896;2022-11-11T01:42:52;5.80;99.90
45329;DHT22;31063;48.356;10.896;2022-11-11T01:45:51;5.80;99.90
45329;DHT22;31063;48.356;10.896;2022-11-11T01:48:34;5.80;99.90
45329;DHT22;31063;48.356;10.896;2022-11-11T01:51:33;5.70;99.90
45329;DHT22;31063;48.356;10.896;2022-11-11T01:54:02;5.70;99.90
45329;DHT22;31063;48.356;10.896;2022-11-11T01:56:29;5.70;99.90
45329;DHT22;31063;48.356;10.896;2022-11-11T01:58:57;5.70;99.90
45329;DHT22;31063;48.356;10.896;2022-11-11T02:01:25;5.60;99.90
45329;DHT22;31063;48.356;10.896;2022-11-11T02:03:52;5.60;99.90
45329;DHT22;31063;48.356;10.896;2022-11-11T02:06:37;5.60;99.90
45329;DHT22;31063;48.356;10.896;2022-11-11T02:09:04;5.60;99.90
45329;DHT22;31063;48.356;10.896;2022-11-11T02:11:32;5.60;99.90
45329;DHT22;31063;48.356;10.896;2022-11-11T02:14:17;5.60;99.90
45329;DHT22;31063;48.356;10.896;2022-11-11T02:17:02;5.50;99.90
45329;DHT22;31063;48.356;10.896;2022-11-11T02:19:53;5.50;99.90
45329;DHT22;31063;48.356;10.896;2022-11-11T02:22:41;5.50;99.90
45329;DHT22;31063;48.356;10.896;2022-11-11T02:25:13;5.50;99.90
45329;DHT22;31063;48.356;10.896;2022-11-11T02:27:42;5.50;99.90
45329;DHT22;31063;48.356;10.896;2022-11-11T02:30:09;5.50;99.90
45329;DHT22;31063;48.356;10.896;2022-11-11T02:32:44;5.50;99.90
45329;DHT22;31063;48.356;10.896;2022-11-11T02:35:24;5.40;99.90
45329;DHT22;31063;48.356;10.896;2022-11-11T02:37:51;5.40;99.90
45329;DHT22;31063;48.356;10.896;2022-11-11T02:40:41;5.40;99.90
45329;DHT22;31063;48.356;10.896;2022-11-11T02:43:24;5.40;99.90
45329;DHT22;31063;48.356;10.896;2022-11-11T02:45:49;5.40;99.90
45329;DHT22;31063;48.356;10.896;2022-11-11T02:48:15;5.40;99.90
45329;DHT22;31063;48.356;10.896;2022-11-11T02:50:41;5.40;99.90
45329;DHT22;31063;48.356;10.896;2022-11-11T02:53:06;5.40;99.90
45329;DHT22;31063;48.356;10.896;2022-11-11T02:55:32;5.30;99.90
45329;DHT22;31063;48.356;10.896;2022-11-11T02:57:57;5.30;99.90
45329;DHT22;31063;48.356;10.896;2022-11-11T03:00:23;5.30;99.90
45329;DHT22;31063;48.356;10.896;2022-11-11T03:02:49;5.30;99.90
45329;DHT22;31063;48.356;10.896;2022-11-11T03:05:14;5.40;99.90
45329;DHT22;31063;48.356;10.896;2022-11-11T03:07:40;5.30;99.90
45329;DHT22;31063;48.356;10.896;2022-11-11T03:10:06;5.30;99.90
45329;DHT22;31063;48.356;10.896;2022-11-11T03:12:31;5.30;99.90
45329;DHT22;31063;48.356;10.896;2022-11-11T03:14:57;5.20;99.90
45329;DHT22;31063;48.356;10.896;2022-11-11T03:17:23;5.20;99.90
45329;DHT22;31063;48.356;10.896;2022-11-11T03:23:25;5.20;99.90
45329;DHT22;31063;48.356;10.896;2022-11-11T03:25:50;5.10;99.90
45329;DHT22;31063;48.356;10.896;2022-11-11T03:28:18;5.10;99.90
45329;DHT22;31063;48.356;10.896;2022-11-11T03:30:46;5.00;99.90
45329;DHT22;31063;48.356;10.896;2022-11-11T03:33:12;5.00;99.90
45329;DHT22;31063;48.356;10.896;2022-11-11T03:35:38;5.00;99.90
45329;DHT22;31063;48.356;10.896;2022-11-11T03:38:06;5.00;99.90
45329;DHT22;31063;48.356;10.896;2022-11-11T03:40:45;5.00;99.90
45329;DHT22;31063;48.356;10.896;2022-11-11T03:43:12;5.00;99.90
45329;DHT22;31063;48.356;10.896;2022-11-11T03:45:39;4.90;99.90
45329;DHT22;31063;48.356;10.896;2022-11-11T03:48:05;4.90;99.90
45329;DHT22;31063;48.356;10.896;2022-11-11T03:50:31;4.90;99.90
45329;DHT22;31063;48.356;10.896;2022-11-11T03:52:57;4.90;99.90
45329;DHT22;31063;48.356;10.896;2022-11-11T03:55:23;4.90;99.90
45329;DHT22;31063;48.356;10.896;2022-11-11T03:57:48;4.90;99.90
45329;DHT22;31063;48.356;10.896;2022-11-11T04:00:17;4.90;99.90
45329;DHT22;31063;48.356;10.896;2022-11-11T04:02:43;4.80;99.90
45329;DHT22;31063;48.356;10.896;2022-11-11T04:05:27;4.80;99.90
45329;DHT22;31063;48.356;10.896;2022-11-11T04:08:13;4.80;99.90
45329;DHT22;31063;48.356;10.896;2022-11-11T04:11:00;4.80;99.90
45329;DHT22;31063;48.356;10.896;2022-11-11T04:13:28;4.80;99.90
45329;DHT22;31063;48.356;10.896;2022-11-11T04:16:13;4.70;99.90
45329;DHT22;31063;48.356;10.896;2022-11-11T04:18:39;4.70;99.90
45329;DHT22;31063;48.356;10.896;2022-11-11T04:21:23;4.60;99.90
45329;DHT22;31063;48.356;10.896;2022-11-11T04:24:12;4.70;99.90
45329;DHT22;31063;48.356;10.896;2022-11-11T04:26:58;4.60;99.90
45329;DHT22;31063;48.356;10.896;2022-11-11T04:29:24;4.60;99.90
45329;DHT22;31063;48.356;10.896;2022-11-11T04:32:00;4.60;99.90
45329;DHT22;31063;48.356;10.896;2022-11-11T04:34:46;4.60;99.90
45329;DHT22;31063;48.356;10.896;2022-11-11T04:37:13;4.60;99.90
45329;DHT22;31063;48.356;10.896;2022-11-11T04:39:39;4.60;99.90
45329;DHT22;31063;48.356;10.896;2022-11-11T04:42:23;4.60;99.90
45329;DHT22;31063;48.356;10.896;2022-11-11T04:44:49;4.50;99.90
45329;DHT22;31063;48.356;10.896;2022-11-11T04:47:33;4.50;99.90
45329;DHT22;31063;48.356;10.896;2022-11-11T04:49:59;4.50;99.90
45329;DHT22;31063;48.356;10.896;2022-11-11T04:52:24;4.50;99.90
45329;DHT22;31063;48.356;10.896;2022-11-11T04:54:58;4.50;99.90
45329;DHT22;31063;48.356;10.896;2022-11-11T04:57:46;4.50;99.90
45329;DHT22;31063;48.356;10.896;2022-11-11T05:00:15;4.50;99.90
45329;DHT22;31063;48.356;10.896;2022-11-11T05:02:41;4.50;99.90
45329;DHT22;31063;48.356;10.896;2022-11-11T05:05:26;4.50;99.90
45329;DHT22;31063;48.356;10.896;2022-11-11T05:07:52;4.50;99.90
45329;DHT22;31063;48.356;10.896;2022-11-11T05:10:37;4.50;99.90
45329;DHT22;31063;48.356;10.896;2022-11-11T05:13:03;4.40;99.90
45329;DHT22;31063;48.356;10.896;2022-11-11T05:15:47;4.50;99.90
45329;DHT22;31063;48.356;10.896;2022-11-11T05:18:31;4.50;99.90
45329;DHT22;31063;48.356;10.896;2022-11-11T05:21:19;4.40;99.90
45329;DHT22;31063;48.356;10.896;2022-11-11T05:23:45;4.40;99.90
45329;DHT22;31063;48.356;10.896;2022-11-11T05:26:29;4.40;99.90
45329;DHT22;31063;48.356;10.896;2022-11-11T05:28:55;4.40;99.90
45329;DHT22;31063;48.356;10.896;2022-11-11T05:31:20;4.40;99.90
45329;DHT22;31063;48.356;10.896;2022-11-11T05:33:46;4.40;99.90
45329;DHT22;31063;48.356;10.896;2022-11-11T05:36:11;4.30;99.90
45329;DHT22;31063;48.356;10.896;2022-11-11T05:38:37;4.30;99.90
45329;DHT22;31063;48.356;10.896;2022-11-11T05:41:03;4.30;99.90
45329;DHT22;31063;48.356;10.896;2022-11-11T05:43:28;4.30;99.90
45329;DHT22;31063;48.356;10.896;2022-11-11T05:45:54;4.30;99.90
45329;DHT22;31063;48.356;10.896;2022-11-11T05:48:20;4.30;99.90
45329;DHT22;31063;48.356;10.896;2022-11-11T05:50:45;4.20;99.90
45329;DHT22;31063;48.356;10.896;2022-11-11T05:53:11;4.20;99.90
45329;DHT22;31063;48.356;10.896;2022-11-11T05:55:36;4.20;99.90
45329;DHT22;31063;48.356;10.896;2022-11-11T05:58:02;4.20;99.90
45329;DHT22;31063;48.356;10.896;2022-11-11T06:00:28;4.20;99.90
45329;DHT22;31063;48.356;10.896;2022-11-11T06:02:53;4.10;99.90
45329;DHT22;31063;48.356;10.896;2022-11-11T06:05:19;4.20;99.90
45329;DHT22;31063;48.356;10.896;2022-11-11T06:07:45;4.20;99.90
45329;DHT22;31063;48.356;10.896;2022-11-11T06:10:11;4.20;99.90
45329;DHT22;31063;48.356;10.896;2022-11-11T06:12:55;4.20;99.90
45329;DHT22;31063;48.356;10.896;2022-11-11T06:15:27;4.20;99.90
45329;DHT22;31063;48.356;10.896;2022-11-11T06:17:53;4.20;99.90
45329;DHT22;31063;48.356;10.896;2022-11-11T06:20:19;4.10;99.90
45329;DHT22;31063;48.356;10.896;2022-11-11T06:22:44;4.20;99.90
45329;DHT22;31063;48.356;10.896;2022-11-11T06:25:30;4.10;99.90
45329;DHT22;31063;48.356;10.896;2022-11-11T06:28:25;4.10;99.90
45329;DHT22;31063;48.356;10.896;2022-11-11T06:30:51;4.20;99.90
45329;DHT22;31063;48.356;10.896;2022-11-11T06:33:17;4.20;99.90
45329;DHT22;31063;48.356;10.896;2022-11-11T06:35:43;4.20;99.90
45329;DHT22;31063;48.356;10.896;2022-11-11T06:38:09;4.20;99.90
45329;DHT22;31063;48.356;10.896;2022-11-11T06:40:34;4.20;99.90
45329;DHT22;31063;48.356;10.896;2022-11-11T06:43:00;4.30;99.90
45329;DHT22;31063;48.356;10.896;2022-11-11T06:45:27;4.30;99.90
45329;DHT22;31063;48.356;10.896;2022-11-11T06:47:53;4.30;99.90
45329;DHT22;31063;48.356;10.896;2022-11-11T06:50:19;4.30;99.90
45329;DHT22;31063;48.356;10.896;2022-11-11T06:52:45;4.40;99.90
45329;DHT22;31063;48.356;10.896;2022-11-11T06:55:11;4.40;99.90
45329;DHT22;31063;48.356;10.896;2022-11-11T06:57:37;4.40;99.90
45329;DHT22;31063;48.356;10.896;2022-11-11T07:00:07;4.40;99.90
45329;DHT22;31063;48.356;10.896;2022-11-11T07:02:32;4.40;99.90
45329;DHT22;31063;48.356;10.896;2022-11-11T07:04:59;4.50;99.90
45329;DHT22;31063;48.356;10.896;2022-11-11T07:07:25;4.40;99.90
45329;DHT22;31063;48.356;10.896;2022-11-11T07:09:50;4.40;99.90
45329;DHT22;31063;48.356;10.896;2022-11-11T07:12:16;4.40;99.90
45329;DHT22;31063;48.356;10.896;2022-11-11T07:14:42;4.50;99.90
45329;DHT22;31063;48.356;10.896;2022-11-11T07:17:08;4.50;99.90
45329;DHT22;31063;48.356;10.896;2022-11-11T07:19:33;4.50;99.90
45329;DHT22;31063;48.356;10.896;2022-11-11T07:21:59;4.50;99.90
45329;DHT22;31063;48.356;10.896;2022-11-11T07:24:25;4.60;99.90
45329;DHT22;31063;48.356;10.896;2022-11-11T07:26:50;4.60;99.90
45329;DHT22;31063;48.356;10.896;2022-11-11T07:29:16;4.70;99.90
45329;DHT22;31063;48.356;10.896;2022-11-11T07:31:41;4.70;99.90
45329;DHT22;31063;48.356;10.896;2022-11-11T07:34:07;4.70;99.90
45329;DHT22;31063;48.356;10.896;2022-11-11T07:36:33;4.70;99.90
45329;DHT22;31063;48.356;10.896;2022-11-11T07:38:59;4.80;99.90
45329;DHT22;31063;48.356;10.896;2022-11-11T07:41:24;4.90;99.90
45329;DHT22;31063;48.356;10.896;2022-11-11T07:43:50;4.90;99.90
45329;DHT22;31063;48.356;10.896;2022-11-11T07:46:15;4.90;99.90
45329;DHT22;31063;48.356;10.896;2022-11-11T07:48:41;5.00;99.90
45329;DHT22;31063;48.356;10.896;2022-11-11T07:51:07;5.00;99.90
45329;DHT22;31063;48.356;10.896;2022-11-11T07:53:32;5.00;99.90
45329;DHT22;31063;48.356;10.896;2022-11-11T07:55:58;5.10;99.90
45329;DHT22;31063;48.356;10.896;2022-11-11T07:58:24;5.10;99.90
45329;DHT22;31063;48.356;10.896;2022-11-11T08:00:50;5.20;99.90
45329;DHT22;31063;48.356;10.896;2022-11-11T08:03:15;5.20;99.90
45329;DHT22;31063;48.356;10.896;2022-11-11T08:05:41;5.20;99.90
45329;DHT22;31063;48.356;10.896;2022-11-11T08:08:08;5.30;99.90
45329;DHT22;31063;48.356;10.896;2022-11-11T08:10:34;5.30;99.90
45329;DHT22;31063;48.356;10.896;2022-11-11T08:13:00;5.30;99.90
45329;DHT22;31063;48.356;10.896;2022-11-11T08:15:44;5.40;99.90
45329;DHT22;31063;48.356;10.896;2022-11-11T08:18:10;5.40;99.90
45329;DHT22;31063;48.356;10.896;2022-11-11T08:20:37;5.50;99.90
45329;DHT22;31063;48.356;10.896;2022-11-11T08:23:02;5.50;99.90
45329;DHT22;31063;48.356;10.896;2022-11-11T08:25:35;5.60;99.90
45329;DHT22;31063;48.356;10.896;2022-11-11T08:28:03;5.60;99.90
45329;DHT22;31063;48.356;10.896;2022-11-11T08:30:30;5.60;99.90
45329;DHT22;31063;48.356;10.896;2022-11-11T08:32:56;5.60;99.90
45329;DHT22;31063;48.356;10.896;2022-11-11T08:35:22;5.60;99.90
45329;DHT22;31063;48.356;10.896;2022-11-11T08:37:47;5.70;99.90
45329;DHT22;31063;48.356;10.896;2022-11-11T08:40:14;5.70;99.90
45329;DHT22;31063;48.356;10.896;2022-11-11T08:42:40;5.70;99.90
45329;DHT22;31063;48.356;10.896;2022-11-11T08:45:07;5.70;99.90
45329;DHT22;31063;48.356;10.896;2022-11-11T08:47:34;5.70;99.90
45329;DHT22;31063;48.356;10.896;2022-11-11T08:49:59;5.80;99.90
45329;DHT22;31063;48.356;10.896;2022-11-11T08:52:25;5.80;99.90
45329;DHT22;31063;48.356;10.896;2022-11-11T08:54:51;5.80;99.90
45329;DHT22;31063;48.356;10.896;2022-11-11T08:57:16;5.80;99.90
45329;DHT22;31063;48.356;10.896;2022-11-11T08:59:42;5.80;99.90
45329;DHT22;31063;48.356;10.896;2022-11-11T09:02:10;5.90;99.90
45329;DHT22;31063;48.356;10.896;2022-11-11T09:04:37;5.80;99.90
45329;DHT22;31063;48.356;10.896;2022-11-11T09:07:02;5.80;99.90
45329;DHT22;31063;48.356;10.896;2022-11-11T09:09:28;5.90;99.90
45329;DHT22;31063;48.356;10.896;2022-11-11T09:11:54;5.90;99.90
45329;DHT22;31063;48.356;10.896;2022-11-11T09:14:19;6.00;99.90
45329;DHT22;31063;48.356;10.896;2022-11-11T09:16:45;6.00;99.90
45329;DHT22;31063;48.356;10.896;2022-11-11T09:19:10;6.10;99.90
45329;DHT22;31063;48.356;10.896;2022-11-11T09:21:36;6.20;99.90
45329;DHT22;31063;48.356;10.896;2022-11-11T09:24:02;6.20;99.90
45329;DHT22;31063;48.356;10.896;2022-11-11T09:26:27;6.30;99.90
45329;DHT22;31063;48.356;10.896;2022-11-11T09:28:53;6.30;99.90
45329;DHT22;31063;48.356;10.896;2022-11-11T09:31:19;6.50;99.90
45329;DHT22;31063;48.356;10.896;2022-11-11T09:33:44;6.50;99.90
45329;DHT22;31063;48.356;10.896;2022-11-11T09:36:10;6.60;99.90
45329;DHT22;31063;48.356;10.896;2022-11-11T09:38:36;6.60;99.90
45329;DHT22;31063;48.356;10.896;2022-11-11T09:41:11;6.70;99.90
45329;DHT22;31063;48.356;10.896;2022-11-11T09:52:12;7.00;99.90
45329;DHT22;31063;48.356;10.896;2022-11-11T09:57:26;7.20;99.90
45329;DHT22;31063;48.356;10.896;2022-11-11T09:59:55;7.20;99.90
45329;DHT22;31063;48.356;10.896;2022-11-11T10:05:16;7.40;99.90
45329;DHT22;31063;48.356;10.896;2022-11-11T10:12:58;7.60;99.90
45329;DHT22;31063;48.356;10.896;2022-11-11T10:15:29;7.70;99.90
45329;DHT22;31063;48.356;10.896;2022-11-11T10:18:17;7.80;99.90
45329;DHT22;31063;48.356;10.896;2022-11-11T10:20:54;7.90;99.90
45329;DHT22;31063;48.356;10.896;2022-11-11T10:23:31;7.90;99.90
45329;DHT22;31063;48.356;10.896;2022-11-11T10:26:06;8.00;99.90
45329;DHT22;31063;48.356;10.896;2022-11-11T10:28:36;8.10;99.90
45329;DHT22;31063;48.356;10.896;2022-11-11T10:31:05;8.20;99.90
45329;DHT22;31063;48.356;10.896;2022-11-11T10:33:51;8.30;99.90
45329;DHT22;31063;48.356;10.896;2022-11-11T10:36:19;8.40;99.90
45329;DHT22;31063;48.356;10.896;2022-11-11T10:39:00;8.50;99.90
45329;DHT22;31063;48.356;10.896;2022-11-11T10:41:35;8.60;99.90
45329;DHT22;31063;48.356;10.896;2022-11-11T10:44:27;8.60;99.90
45329;DHT22;31063;48.356;10.896;2022-11-11T10:47:55;8.70;99.90
45329;DHT22;31063;48.356;10.896;2022-11-11T10:50:01;8.90;99.90
45329;DHT22;31063;48.356;10.896;2022-11-11T10:52:40;9.00;99.90
45329;DHT22;31063;48.356;10.896;2022-11-11T10:58:06;9.20;99.90
45329;DHT22;31063;48.356;10.896;2022-11-11T11:00:31;9.30;99.90
45329;DHT22;31063;48.356;10.896;2022-11-11T11:05:55;9.50;99.90
45329;DHT22;31063;48.356;10.896;2022-11-11T11:08:33;9.50;99.90
45329;DHT22;31063;48.356;10.896;2022-11-11T11:11:04;9.60;99.90
45329;DHT22;31063;48.356;10.896;2022-11-11T11:13:42;9.60;99.90
45329;DHT22;31063;48.356;10.896;2022-11-11T11:16:16;9.70;99.90
45329;DHT22;31063;48.356;10.896;2022-11-11T11:18:43;9.80;99.90
45329;DHT22;31063;48.356;10.896;2022-11-11T11:21:09;9.90;99.90
45329;DHT22;31063;48.356;10.896;2022-11-11T11:23:42;9.90;99.90
45329;DHT22;31063;48.356;10.896;2022-11-11T11:26:10;9.90;99.90
45329;DHT22;31063;48.356;10.896;2022-11-11T11:28:56;9.90;99.90
45329;DHT22;31063;48.356;10.896;2022-11-11T11:31:39;10.00;99.90
45329;DHT22;31063;48.356;10.896;2022-11-11T11:34:05;10.10;99.90
45329;DHT22;31063;48.356;10.896;2022-11-11T11:36:31;10.00;99.90
45329;DHT22;31063;48.356;10.896;2022-11-11T11:38:57;10.10;99.90
45329;DHT22;31063;48.356;10.896;2022-11-11T11:41:43;10.10;99.90
45329;DHT22;31063;48.356;10.896;2022-11-11T11:46:57;10.20;99.90
45329;DHT22;31063;48.356;10.896;2022-11-11T11:55:14;10.40;99.90
45329;DHT22;31063;48.356;10.896;2022-11-11T12:00:22;10.40;99.90
45329;DHT22;31063;48.356;10.896;2022-11-11T12:06:47;10.50;99.90
45329;DHT22;31063;48.356;10.896;2022-11-11T12:17:25;10.80;99.90
45329;DHT22;31063;48.356;10.896;2022-11-11T12:25:52;10.80;99.90
45329;DHT22;31063;48.356;10.896;2022-11-11T12:37:06;10.90;99.90
45329;DHT22;31063;48.356;10.896;2022-11-11T12:40:00;11.00;99.90
45329;DHT22;31063;48.356;10.896;2022-11-11T12:42:45;11.10;99.90
45329;DHT22;31063;48.356;10.896;2022-11-11T12:45:18;11.20;99.90
45329;DHT22;31063;48.356;10.896;2022-11-11T12:50:23;11.30;99.90
45329;DHT22;31063;48.356;10.896;2022-11-11T12:53:18;11.30;99.90
45329;DHT22;31063;48.356;10.896;2022-11-11T13:01:36;11.40;99.90
45329;DHT22;31063;48.356;10.896;2022-11-11T13:04:36;11.40;99.90
45329;DHT22;31063;48.356;10.896;2022-11-11T13:15:20;11.40;99.90
45329;DHT22;31063;48.356;10.896;2022-11-11T13:17:46;11.40;99.90
45329;DHT22;31063;48.356;10.896;2022-11-11T13:22:49;11.40;99.90
45329;DHT22;31063;48.356;10.896;2022-11-11T13:25:22;11.50;99.90
45329;DHT22;31063;48.356;10.896;2022-11-11T13:28:02;11.40;99.90
45329;DHT22;31063;48.356;10.896;2022-11-11T13:30:34;11.50;99.90
45329;DHT22;31063;48.356;10.896;2022-11-11T13:33:16;11.50;99.90
45329;DHT22;31063;48.356;10.896;2022-11-11T13:35:47;11.60;99.90
45329;DHT22;31063;48.356;10.896;2022-11-11T13:38:37;11.70;99.90
45329;DHT22;31063;48.356;10.896;2022-11-11T13:41:06;11.70;99.90
45329;DHT22;31063;48.356;10.896;2022-11-11T13:43:42;11.60;99.90
45329;DHT22;31063;48.356;10.896;2022-11-11T13:46:37;11.50;99.90
45329;DHT22;31063;48.356;10.896;2022-11-11T13:49:18;11.40;99.90
45329;DHT22;31063;48.356;10.896;2022-11-11T13:51:45;11.40;99.90
45329;DHT22;31063;48.356;10.896;2022-11-11T13:56:49;11.30;99.90
45329;DHT22;31063;48.356;10.896;2022-11-11T13:59:29;11.20;99.90
45329;DHT22;31063;48.356;10.896;2022-11-11T14:10:09;11.00;99.90
45329;DHT22;31063;48.356;10.896;2022-11-11T14:12:57;11.00;99.90
45329;DHT22;31063;48.356;10.896;2022-11-11T14:15:49;11.00;99.90
45329;DHT22;31063;48.356;10.896;2022-11-11T14:20:44;11.00;99.90
45329;DHT22;31063;48.356;10.896;2022-11-11T14:23:35;11.10;99.90
45329;DHT22;31063;48.356;10.896;2022-11-11T14:39:55;10.70;99.90
45329;DHT22;31063;48.356;10.896;2022-11-11T14:45:00;10.50;99.90
45329;DHT22;31063;48.356;10.896;2022-11-11T14:47:33;10.40;99.90
45329;DHT22;31063;48.356;10.896;2022-11-11T14:49:59;10.30;99.90
45329;DHT22;31063;48.356;10.896;2022-11-11T14:57:47;10.10;99.90
45329;DHT22;31063;48.356;10.896;2022-11-11T15:00:22;10.10;99.90
45329;DHT22;31063;48.356;10.896;2022-11-11T15:03:06;10.10;99.90
45329;DHT22;31063;48.356;10.896;2022-11-11T15:05:51;10.00;99.90
45329;DHT22;31063;48.356;10.896;2022-11-11T15:08:23;10.00;99.90
45329;DHT22;31063;48.356;10.896;2022-11-11T15:27:43;9.70;99.90
45329;DHT22;31063;48.356;10.896;2022-11-11T15:30:16;9.70;99.90
45329;DHT22;31063;48.356;10.896;2022-11-11T15:38:20;9.50;99.90
45329;DHT22;31063;48.356;10.896;2022-11-11T15:40:53;9.40;99.90
45329;DHT22;31063;48.356;10.896;2022-11-11T15:43:30;9.40;99.90
45329;DHT22;31063;48.356;10.896;2022-11-11T15:45:59;9.30;99.90
45329;DHT22;31063;48.356;10.896;2022-11-11T15:50:55;9.10;99.90
45329;DHT22;31063;48.356;10.896;2022-11-11T15:53:26;9.00;99.90
45329;DHT22;31063;48.356;10.896;2022-11-11T15:55:57;8.90;99.90
45329;DHT22;31063;48.356;10.896;2022-11-11T15:58:27;8.80;99.90
45329;DHT22;31063;48.356;10.896;2022-11-11T16:00:53;8.70;99.90
45329;DHT22;31063;48.356;10.896;2022-11-11T16:03:34;8.70;99.90
45329;DHT22;31063;48.356;10.896;2022-11-11T16:06:08;8.60;99.90
45329;DHT22;31063;48.356;10.896;2022-11-11T16:08:35;8.60;99.90
45329;DHT22;31063;48.356;10.896;2022-11-11T16:11:01;8.60;99.90
45329;DHT22;31063;48.356;10.896;2022-11-11T16:16:20;8.50;99.90
45329;DHT22;31063;48.356;10.896;2022-11-11T16:26:44;8.40;99.90
45329;DHT22;31063;48.356;10.896;2022-11-11T16:29:14;8.40;99.90
45329;DHT22;31063;48.356;10.896;2022-11-11T16:31:42;8.40;99.90
45329;DHT22;31063;48.356;10.896;2022-11-11T16:34:43;8.40;99.90
45329;DHT22;31063;48.356;10.896;2022-11-11T16:37:13;8.30;99.90
45329;DHT22;31063;48.356;10.896;2022-11-11T16:39:42;8.20;99.90
45329;DHT22;31063;48.356;10.896;2022-11-11T16:42:27;8.10;99.90
45329;DHT22;31063;48.356;10.896;2022-11-11T16:44:58;8.00;99.90
45329;DHT22;31063;48.356;10.896;2022-11-11T16:50:17;8.00;99.90
45329;DHT22;31063;48.356;10.896;2022-11-11T16:52:58;8.00;99.90
45329;DHT22;31063;48.356;10.896;2022-11-11T16:55:44;7.90;99.90
45329;DHT22;31063;48.356;10.896;2022-11-11T16:58:21;8.00;99.90
45329;DHT22;31063;48.356;10.896;2022-11-11T17:00:47;7.90;99.90
45329;DHT22;31063;48.356;10.896;2022-11-11T17:03:18;7.90;99.90
45329;DHT22;31063;48.356;10.896;2022-11-11T17:05:56;7.80;99.90
45329;DHT22;31063;48.356;10.896;2022-11-11T17:08:40;7.80;99.90
45329;DHT22;31063;48.356;10.896;2022-11-11T17:11:11;7.70;99.90
45329;DHT22;31063;48.356;10.896;2022-11-11T17:13:50;7.70;99.90
45329;DHT22;31063;48.356;10.896;2022-11-11T17:16:16;7.70;99.90
45329;DHT22;31063;48.356;10.896;2022-11-11T17:18:41;7.70;99.90
45329;DHT22;31063;48.356;10.896;2022-11-11T17:21:07;7.70;99.90
45329;DHT22;31063;48.356;10.896;2022-11-11T17:23:33;7.70;99.90
45329;DHT22;31063;48.356;10.896;2022-11-11T17:25:59;7.70;99.90
45329;DHT22;31063;48.356;10.896;2022-11-11T17:28:26;7.70;99.90
45329;DHT22;31063;48.356;10.896;2022-11-11T17:30:51;7.70;99.90
45329;DHT22;31063;48.356;10.896;2022-11-11T17:33:17;7.70;99.90
45329;DHT22;31063;48.356;10.896;2022-11-11T17:35:50;7.60;99.90
45329;DHT22;31063;48.356;10.896;2022-11-11T17:38:16;7.70;99.90
45329;DHT22;31063;48.356;10.896;2022-11-11T17:40:47;7.70;99.90
45329;DHT22;31063;48.356;10.896;2022-11-11T17:43:13;7.70;99.90
45329;DHT22;31063;48.356;10.896;2022-11-11T17:45:39;7.70;99.90
45329;DHT22;31063;48.356;10.896;2022-11-11T17:48:06;7.70;99.90
45329;DHT22;31063;48.356;10.896;2022-11-11T17:50:32;7.60;99.90
45329;DHT22;31063;48.356;10.896;2022-11-11T17:52:57;7.70;99.90
45329;DHT22;31063;48.356;10.896;2022-11-11T17:55:23;7.60;99.90
45329;DHT22;31063;48.356;10.896;2022-11-11T17:57:49;7.70;99.90
45329;DHT22;31063;48.356;10.896;2022-11-11T18:00:16;7.60;99.90
45329;DHT22;31063;48.356;10.896;2022-11-11T18:02:41;7.60;99.90
45329;DHT22;31063;48.356;10.896;2022-11-11T18:05:07;7.60;99.90
45329;DHT22;31063;48.356;10.896;2022-11-11T18:07:33;7.60;99.90
45329;DHT22;31063;48.356;10.896;2022-11-11T18:09:59;7.60;99.90
45329;DHT22;31063;48.356;10.896;2022-11-11T18:12:27;7.60;99.90
45329;DHT22;31063;48.356;10.896;2022-11-11T18:14:53;7.60;99.90
45329;DHT22;31063;48.356;10.896;2022-11-11T18:17:18;7.60;99.90
45329;DHT22;31063;48.356;10.896;2022-11-11T18:19:44;7.70;99.90
45329;DHT22;31063;48.356;10.896;2022-11-11T18:22:10;7.70;99.90
45329;DHT22;31063;48.356;10.896;2022-11-11T18:24:35;7.60;99.90
45329;DHT22;31063;48.356;10.896;2022-11-11T18:27:01;7.60;99.90
45329;DHT22;31063;48.356;10.896;2022-11-11T18:29:27;7.50;99.90
45329;DHT22;31063;48.356;10.896;2022-11-11T18:31:53;7.50;99.90